Moira, NY (12957)

10:25 PM EDT on September 03, 2015 (GMT -0400)
Deer river | | Change Station
CLOSE
Current Station
Personal Weather Station
Location: Brasher Falls-Winthrop, NY
Elevation: 299 ft
Nearby Weather Stations

Elev 299 ft 44.82 °N, 74.69 °W | Updated 12 minutes ago

Clear
Clear
65.1 °F
Feels Like 65.1 °F
N
0.0
Wind Variable Wind from ENE

Today
High -- | Low -- °F
--% Chance of Precip.
Yesterday
High -- | Low -- °F
Precip. -- in
6:22 AM 7:32 PM
Waning Gibbous, 64% visible
Pressure 29.99 in
Visibility 7.0 miles
Clouds Clear
Dew Point 65 °F
Humidity 99%
Rainfall 0.00 in
Snow Depth Not available.
UV 0 out of 12
Pollen 7.70 out of 12
Air Quality Not available.
Flu Activity Not available.
METAR KMSS 040153Z AUTO 00000KT 7SM CLR 18/16 A2999 RMK AO2 SLP155 T01780161
Pressure 29.99 in
Visibility 7.0 miles
Clouds Clear
Dew Point 65 °F
Humidity 99%
Rainfall 0.00 in
Snow Depth Not available.
UV 0 out of 12
Pollen 7.70 out of 12
Air Quality Not available.
Flu Activity Not available.
METAR KMSS 040153Z AUTO 00000KT 7SM CLR 18/16 A2999 RMK AO2 SLP155 T01780161

10-Day Weather Forecast

×

Almanac

Astronomy

Sep. 03, 2015 Rise Set
Actual Time
Civil Twilight
Nautical Twilight
Astronomical Twilight
Moon
Length of Visible Light
Length of Day
Tomorrow will be .
, % of the Moon is Illuminated

Today's Extremes

State Highs State Lows

Community

WunderPhotos

Upload Photos

1,852,101 photos uploaded!

WunderBlogs® & News

Nearby

Air Quality

  Air Quality AQ Index Pollutant
Not available.

Snow Depth

Station Depth Elevation

Earthquake Activity

City Distance Mag. Time & Date
Minimum magnitude displayed is 2.5.

Coastal Water Temperatures

Place Temperature

Stations

Nearby Weather Stations

Station Location Temp. Windchill Dew Point Humidity Wind Precip. Elev Updated Type